Time;durP1;ratioP1;P1;durP2;ratioP2;P2;SDS_P1;SDS_P2;PMS_P1;PMS_P2;Temp;Humidity;BMP_temperature;BMP_pressure;BME280_temperature;BME280_humidity;BME280_pressure;Samples;Min_cycle;Max_cycle;Signal;HPM_P1;HPM_P2
2023/06/26 00:01:29;;;;;;;2.97;1.48;;;;;;;22.94;54.23;93549.06;4989333;28;20050;-87
2023/06/26 00:03:55;;;;;;;1.67;1.55;;;;;;;22.95;54.10;93549.78;5005039;28;20381;-88
2023/06/26 00:06:20;;;;;;;2.47;1.50;;;;;;;22.94;53.94;93551.81;5005305;28;20034;-88
2023/06/26 00:08:46;;;;;;;2.53;1.42;;;;;;;22.94;54.05;93556.59;5007083;28;20057;-88
2023/06/26 00:11:11;;;;;;;2.17;1.70;;;;;;;22.94;53.98;93551.81;5005667;28;20053;-87
2023/06/26 00:13:36;;;;;;;1.92;1.50;;;;;;;22.94;54.06;93554.56;5005495;28;20042;-88
2023/06/26 00:16:03;;;;;;;2.05;1.23;;;;;;;22.94;54.04;93560.09;5006133;28;20046;-90
2023/06/26 00:18:28;;;;;;;2.22;1.58;;;;;;;22.93;54.29;93557.84;5005547;28;20052;-88
2023/06/26 00:20:54;;;;;;;3.33;1.90;;;;;;;22.93;54.08;93547.56;5006338;28;20042;-89
2023/06/26 00:23:19;;;;;;;2.08;1.48;;;;;;;22.93;54.07;93552.34;5005058;28;20035;-87
2023/06/26 00:25:45;;;;;;;2.15;1.67;;;;;;;22.93;54.28;93558.59;5004862;28;20046;-87
2023/06/26 00:28:10;;;;;;;4.47;1.85;;;;;;;22.94;53.97;93551.81;5005367;28;20073;-87
2023/06/26 00:30:35;;;;;;;2.25;1.70;;;;;;;22.93;54.06;93557.84;5005132;28;20546;-88
2023/06/26 00:33:01;;;;;;;1.63;1.42;;;;;;;22.93;54.26;93560.63;5005736;28;20441;-88
2023/06/26 00:35:26;;;;;;;2.72;1.98;;;;;;;22.90;54.18;93554.91;4988415;28;20672;-90
2023/06/26 00:37:52;;;;;;;2.80;2.00;;;;;;;22.90;54.31;93556.91;5005673;28;20046;-90
2023/06/26 00:40:17;;;;;;;2.35;1.88;;;;;;;22.90;54.13;93554.16;5003797;28;20050;-88
2023/06/26 00:42:43;;;;;;;2.05;1.60;;;;;;;22.92;54.19;93550.88;5005751;28;20042;-87
2023/06/26 00:45:08;;;;;;;2.47;1.80;;;;;;;22.89;54.24;93539.63;4998397;28;20046;-88
2023/06/26 00:47:34;;;;;;;2.67;1.83;;;;;;;22.90;54.25;93543.88;5005964;28;20072;-87
2023/06/26 00:49:59;;;;;;;1.70;1.40;;;;;;;22.90;54.31;93540.38;5006336;28;20408;-89
2023/06/26 00:52:25;;;;;;;3.35;1.70;;;;;;;22.89;54.38;93547.91;5026856;28;20492;-88
2023/06/26 00:54:53;;;;;;;2.10;1.70;;;;;;;22.89;54.10;93541.66;5009014;28;20559;-88
2023/06/26 00:57:19;;;;;;;2.65;1.65;;;;;;;22.91;54.15;93541.84;4999804;28;20046;-87
2023/06/26 00:59:44;;;;;;;2.92;1.77;;;;;;;22.90;54.32;93535.59;5013862;28;20539;-87
2023/06/26 01:02:10;;;;;;;1.95;1.65;;;;;;;22.89;54.37;93525.09;5010116;28;20407;-87
2023/06/26 01:04:35;;;;;;;2.72;1.67;;;;;;;22.91;54.14;93536.34;4991794;28;20621;-88
2023/06/26 01:07:00;;;;;;;2.17;1.70;;;;;;;22.89;54.31;93533.38;5003276;28;20038;-89
2023/06/26 01:09:26;;;;;;;1.90;1.40;;;;;;;22.88;54.22;93531.91;4996918;28;20057;-88
2023/06/26 01:11:51;;;;;;;1.90;1.70;;;;;;;22.88;54.23;93529.16;5007845;28;20050;-89
2023/06/26 01:14:17;;;;;;;2.38;1.58;;;;;;;22.86;54.35;93535.19;5009821;28;20108;-87
2023/06/26 01:16:47;;;;;;;2.28;1.90;;;;;;;22.88;54.21;93526.38;5011422;28;20492;-87
2023/06/26 01:19:15;;;;;;;2.50;2.03;;;;;;;22.85;54.09;93528.19;5007077;28;20049;-88
2023/06/26 01:21:43;;;;;;;2.20;1.55;;;;;;;22.85;54.08;93528.19;4992347;28;20052;-88
2023/06/26 01:24:20;;;;;;;1.83;1.20;;;;;;;22.86;54.06;93526.19;5008348;28;20041;-87
2023/06/26 01:26:45;;;;;;;2.30;1.70;;;;;;;22.85;54.28;93524.69;4993433;28;20104;-89
2023/06/26 01:29:11;;;;;;;2.28;1.50;;;;;;;22.85;54.41;93519.19;4988278;28;20063;-87
2023/06/26 01:31:36;;;;;;;2.70;1.92;;;;;;;22.86;54.55;93526.19;4981990;28;20399;-88
2023/06/26 01:34:01;;;;;;;2.40;2.10;;;;;;;22.86;54.45;93517.91;5007052;28;20507;-89
2023/06/26 01:36:27;;;;;;;2.35;1.90;;;;;;;22.85;54.39;93514.41;5008650;28;20046;-89
2023/06/26 01:38:52;;;;;;;2.42;1.92;;;;;;;22.85;54.15;93513.69;5008008;28;20042;-87
2023/06/26 01:41:18;;;;;;;2.45;1.70;;;;;;;22.85;54.33;93499.88;5023074;28;20034;-89
2023/06/26 01:44:03;;;;;;;1.83;1.73;;;;;;;22.86;54.37;93501.38;5008541;28;20038;-87
2023/06/26 01:46:47;;;;;;;3.05;2.15;;;;;;;22.84;54.42;93509.44;5009751;28;20084;-88
2023/06/26 01:49:38;;;;;;;2.15;1.92;;;;;;;22.84;54.30;93512.19;5008788;28;20395;-87
2023/06/26 01:52:28;;;;;;;2.50;1.67;;;;;;;22.83;54.44;93505.19;4990672;28;20046;-88
2023/06/26 01:55:02;;;;;;;2.20;1.73;;;;;;;22.83;54.50;93505.94;4996730;28;20061;-87
2023/06/26 01:57:28;;;;;;;2.40;1.80;;;;;;;22.81;54.43;93491.97;5018624;28;20042;-88
2023/06/26 01:59:54;;;;;;;2.78;2.25;;;;;;;22.82;54.31;93495.44;4996847;28;20033;-89
2023/06/26 02:02:20;;;;;;;2.67;2.13;;;;;;;22.82;54.31;93498.22;4989757;28;20129;-87
2023/06/26 02:04:47;;;;;;;2.50;1.98;;;;;;;22.81;54.44;93497.47;5009857;28;20038;-89
2023/06/26 02:07:13;;;;;;;2.13;1.65;;;;;;;22.82;54.26;93490.69;5009037;28;20520;-87
2023/06/26 02:09:39;;;;;;;2.47;1.98;;;;;;;22.81;54.12;93489.19;5008005;28;20049;-90
2023/06/26 02:12:04;;;;;;;2.63;2.10;;;;;;;22.81;54.40;93493.97;5006964;28;20030;-88
2023/06/26 02:14:31;;;;;;;2.15;1.40;;;;;;;22.82;54.36;93495.44;5007774;28;20046;-87
2023/06/26 02:16:56;;;;;;;2.78;2.10;;;;;;;22.82;54.26;93493.44;5012398;28;20040;-86
2023/06/26 02:19:22;;;;;;;2.83;2.10;;;;;;;22.82;54.30;93501.72;5011892;28;20053;-87
2023/06/26 02:21:49;;;;;;;2.50;1.75;;;;;;;22.82;54.16;93507.22;5007573;28;20084;-87
2023/06/26 02:24:14;;;;;;;2.67;2.20;;;;;;;22.81;54.34;93505.75;5006366;28;20050;-87
2023/06/26 02:26:40;;;;;;;3.05;2.30;;;;;;;22.82;54.19;93503.72;5008937;28;20060;-89
2023/06/26 02:29:05;;;;;;;1.65;1.55;;;;;;;22.82;54.26;93496.19;5021487;28;20038;-90
2023/06/26 02:31:31;;;;;;;2.13;1.70;;;;;;;22.81;54.05;93511.25;5006657;28;20042;-89
2023/06/26 02:33:56;;;;;;;2.08;1.60;;;;;;;22.82;54.33;93512.00;4990317;28;20641;-88
2023/06/26 02:36:22;;;;;;;2.67;1.52;;;;;;;22.81;54.39;93508.50;5007352;28;20566;-87
2023/06/26 02:38:47;;;;;;;2.40;1.95;;;;;;;22.81;54.07;93510.50;5007670;28;20033;-88
2023/06/26 02:41:14;;;;;;;2.45;1.88;;;;;;;22.80;54.14;93506.28;5006854;28;20551;-88
2023/06/26 02:43:39;;;;;;;2.47;1.88;;;;;;;22.81;54.00;93513.25;4987839;28;20085;-90
2023/06/26 02:46:05;;;;;;;2.70;1.90;;;;;;;22.79;54.35;93508.28;5003903;28;20512;-88
2023/06/26 02:48:30;;;;;;;2.17;1.83;;;;;;;22.79;54.19;93508.28;5009009;28;20050;-89
2023/06/26 02:50:55;;;;;;;2.17;1.75;;;;;;;22.80;54.24;93511.78;5008077;28;20168;-87
2023/06/26 02:53:21;;;;;;;1.98;1.70;;;;;;;22.80;54.22;93506.28;4987331;28;20046;-87
2023/06/26 02:55:47;;;;;;;2.65;1.95;;;;;;;22.80;54.26;93506.28;5001896;28;20050;-89
2023/06/26 02:58:13;;;;;;;2.47;1.83;;;;;;;22.79;54.33;93508.28;5009963;28;20038;-88
2023/06/26 03:00:41;;;;;;;2.00;1.70;;;;;;;22.79;54.22;93510.31;5012739;28;20116;-87
2023/06/26 03:03:08;;;;;;;2.25;1.67;;;;;;;22.78;53.91;93512.31;5021434;28;20042;-89
2023/06/26 03:05:34;;;;;;;3.35;2.28;;;;;;;22.78;54.20;93501.28;5007261;28;20034;-87
2023/06/26 03:07:59;;;;;;;2.22;1.83;;;;;;;22.78;54.15;93512.31;5023338;28;20049;-88
2023/06/26 03:10:24;;;;;;;3.22;2.15;;;;;;;22.78;53.94;93506.06;4997763;28;20050;-86
2023/06/26 03:12:50;;;;;;;2.50;1.70;;;;;;;22.78;54.09;93506.06;5005758;28;20054;-87
2023/06/26 03:15:15;;;;;;;2.25;1.65;;;;;;;22.79;54.06;93502.03;5006092;28;20072;-90
2023/06/26 03:17:41;;;;;;;4.30;1.98;;;;;;;22.78;53.90;93511.59;5018789;28;20045;-87
2023/06/26 03:20:07;;;;;;;2.83;1.73;;;;;;;22.79;54.00;93507.53;5006245;28;20049;-90
2023/06/26 03:22:33;;;;;;;4.95;2.30;;;;;;;22.81;53.93;93508.50;5006350;28;20129;-88
2023/06/26 03:24:59;;;;;;;3.65;2.08;;;;;;;22.79;53.75;93511.03;5004512;28;20045;-90
2023/06/26 03:27:24;;;;;;;2.60;2.20;;;;;;;22.81;53.87;93507.75;5006349;28;20100;-88
2023/06/26 03:29:50;;;;;;;14.02;11.73;;;;;;;22.76;49.58;93506.56;5006706;28;20049;-87
2023/06/26 03:32:15;;;;;;;18.17;11.60;;;;;;;22.80;48.26;93504.25;5007139;28;20038;-88
2023/06/26 03:34:40;;;;;;;30.77;23.48;;;;;;;22.45;47.51;93497.28;5008673;28;20042;-88
2023/06/26 03:37:06;;;;;;;20.00;16.40;;;;;;;22.16;47.87;93512.94;5020327;28;20026;-86
2023/06/26 03:39:31;;;;;;;25.85;12.15;;;;;;;22.00;47.94;93507.75;5006041;28;20404;-90
2023/06/26 03:42:00;;;;;;;11.27;8.73;;;;;;;21.89;48.12;93505.97;4992901;28;20041;-88
2023/06/26 03:44:27;;;;;;;9.30;7.32;;;;;;;21.64;48.49;93510.25;4997866;28;20231;-91
2023/06/26 03:46:52;;;;;;;12.00;7.88;;;;;;;21.54;48.55;93504.41;5004532;28;20045;-92
2023/06/26 03:49:18;;;;;;;17.73;9.25;;;;;;;21.41;49.19;93509.91;4971800;28;20057;-92
2023/06/26 03:51:44;;;;;;;12.90;7.30;;;;;;;21.47;48.99;93503.03;4992712;28;20060;-92
2023/06/26 03:54:09;;;;;;;21.50;8.75;;;;;;;21.42;49.03;93512.13;4982779;28;20034;-88
2023/06/26 03:56:35;;;;;;;16.40;7.80;;;;;;;21.28;49.72;93507.88;4990740;28;20046;-90
2023/06/26 03:59:00;;;;;;;24.10;8.35;;;;;;;21.18;49.76;93513.03;4975916;28;20041;-90
2023/06/26 04:01:26;;;;;;;16.85;8.55;;;;;;;21.12;50.07;93511.66;4968641;28;20182;-90
2023/06/26 04:03:51;;;;;;;18.65;7.97;;;;;;;21.09;50.38;93510.69;4990410;28;20403;-89
2023/06/26 04:06:17;;;;;;;16.50;8.95;;;;;;;21.01;50.34;93506.31;5007651;28;20038;-88
2023/06/26 04:08:42;;;;;;;26.98;13.07;;;;;;;20.85;50.49;93513.59;4989414;28;20041;-90
2023/06/26 04:11:08;;;;;;;35.92;18.55;;;;;;;20.85;51.19;93514.31;4990182;28;20063;-91
2023/06/26 04:13:33;;;;;;;45.90;20.05;;;;;;;20.91;50.58;93514.25;4989202;28;20046;-90
2023/06/26 04:15:59;;;;;;;43.85;14.20;;;;;;;20.84;50.94;93517.59;4983335;28;20054;-90
2023/06/26 04:18:24;;;;;;;28.77;11.80;;;;;;;20.72;51.47;93517.03;4991498;28;20061;-91
2023/06/26 04:21:09;;;;;;;18.52;9.32;;;;;;;20.69;51.99;93517.34;4977679;28;20037;-87
2023/06/26 04:23:34;;;;;;;11.65;7.05;;;;;;;20.54;52.40;93517.84;5006486;28;20046;-89
2023/06/26 04:26:00;;;;;;;15.65;7.47;;;;;;;20.34;52.94;93518.34;5000780;28;20522;-89
2023/06/26 04:28:25;;;;;;;13.32;7.50;;;;;;;20.19;53.55;93525.03;4978276;28;20410;-89
2023/06/26 04:30:51;;;;;;;21.67;9.50;;;;;;;20.14;53.64;93525.09;4988621;28;20042;-89
2023/06/26 04:33:16;;;;;;;15.85;8.18;;;;;;;20.13;54.07;93529.13;4995474;28;20042;-89
2023/06/26 04:35:44;;;;;;;11.43;7.00;;;;;;;20.04;54.35;93521.25;4990534;28;20068;-90
2023/06/26 04:38:10;;;;;;;7.28;5.95;;;;;;;20.04;54.54;93529.47;5002880;28;20089;-89
2023/06/26 04:40:35;;;;;;;8.65;6.63;;;;;;;20.01;54.73;93519.53;4984050;28;20046;-89
2023/06/26 04:43:01;;;;;;;8.45;6.95;;;;;;;19.91;55.14;93523.91;5006780;28;20064;-90
2023/06/26 04:45:26;;;;;;;16.67;6.97;;;;;;;19.98;55.49;93526.06;4977560;28;20049;-91
2023/06/26 04:47:51;;;;;;;13.18;7.07;;;;;;;19.97;55.74;93527.31;4976141;28;20487;-88
2023/06/26 04:50:19;;;;;;;11.77;6.88;;;;;;;20.05;55.45;93531.69;4994772;28;20044;-88
2023/06/26 04:52:44;;;;;;;14.55;8.30;;;;;;;20.18;55.56;93531.03;5007217;28;20065;-91
2023/06/26 04:55:09;;;;;;;16.85;7.70;;;;;;;20.33;55.27;93525.84;4991199;28;20046;-87
2023/06/26 04:57:36;;;;;;;21.75;10.38;;;;;;;20.52;55.05;93529.34;4992807;28;20046;-89
2023/06/26 05:00:04;;;;;;;26.17;9.50;;;;;;;20.59;55.15;93529.97;4979412;28;20042;-88
2023/06/26 05:02:29;;;;;;;30.10;9.85;;;;;;;20.73;54.15;93524.03;5012977;28;20046;-91
2023/06/26 05:04:55;;;;;;;16.88;9.65;;;;;;;20.83;53.69;93516.13;4992208;28;20046;-88
2023/06/26 05:07:20;;;;;;;63.65;13.57;;;;;;;20.90;53.39;93526.50;5009066;28;20096;-89
2023/06/26 05:09:46;;;;;;;29.48;9.88;;;;;;;20.98;53.48;93523.88;5009333;28;20046;-91
2023/06/26 05:12:12;;;;;;;48.10;11.15;;;;;;;20.94;53.47;93517.94;4992840;28;20041;-90
2023/06/26 05:14:39;;;;;;;26.30;9.98;;;;;;;21.09;52.77;93520.94;4991196;28;20080;-90
2023/06/26 05:17:04;;;;;;;35.38;16.50;;;;;;;21.16;52.59;93523.06;4997761;28;20049;-89
2023/06/26 05:19:30;;;;;;;38.17;18.80;;;;;;;21.17;52.50;93519.81;5007149;28;20058;-90
2023/06/26 05:21:55;;;;;;;27.08;14.98;;;;;;;21.22;53.31;93523.72;4988956;28;20500;-88
2023/06/26 05:24:20;;;;;;;14.43;9.25;;;;;;;21.27;54.19;93519.41;4989867;28;20044;-89
2023/06/26 05:26:46;;;;;;;21.63;10.48;;;;;;;21.27;54.41;93519.41;5019282;28;20064;-88
2023/06/26 05:29:12;;;;;;;13.68;9.52;;;;;;;21.33;54.46;93511.81;4987435;28;20129;-89
2023/06/26 05:31:40;;;;;;;28.38;9.18;;;;;;;21.33;54.93;93522.81;4986604;28;20507;-88
2023/06/26 05:34:06;;;;;;;48.80;25.35;;;;;;;21.32;55.10;93522.06;4966847;28;20038;-88
2023/06/26 05:36:32;;;;;;;15.23;8.60;;;;;;;21.36;55.01;93516.25;5005203;28;20049;-89
2023/06/26 05:38:58;;;;;;;21.67;9.52;;;;;;;21.38;55.43;93517.22;4991503;28;20050;-88
2023/06/26 05:41:24;;;;;;;10.45;8.40;;;;;;;21.39;55.43;93523.44;4990008;28;20508;-90
2023/06/26 05:43:49;;;;;;;18.83;8.82;;;;;;;21.43;55.54;93516.38;5005803;28;20054;-91
2023/06/26 05:46:16;;;;;;;13.52;8.55;;;;;;;21.44;55.48;93523.31;4979719;28;20049;-89
2023/06/26 05:48:42;;;;;;;22.73;10.10;;;;;;;21.49;55.22;93530.00;5012845;28;20038;-88
2023/06/26 05:51:10;;;;;;;28.35;14.23;;;;;;;21.53;53.61;93517.41;5018007;28;20068;-90
2023/06/26 05:53:39;;;;;;;70.20;33.20;;;;;;;21.66;53.03;93518.69;4996564;28;20088;-89
2023/06/26 05:56:08;;;;;;;76.13;35.20;;;;;;;21.67;52.69;93517.41;5011020;28;20030;-90
2023/06/26 05:58:33;;;;;;;50.97;24.27;;;;;;;21.71;52.07;93518.56;5009620;28;20057;-92
2023/06/26 06:00:58;;;;;;;50.72;25.45;;;;;;;21.80;52.16;93515.41;5008198;28;20407;-89
2023/06/26 06:03:24;;;;;;;56.38;26.05;;;;;;;21.95;51.77;93520.34;5009807;28;20396;-90
2023/06/26 06:05:49;;;;;;;51.72;26.50;;;;;;;21.95;51.42;93525.13;4987229;28;20042;-88
2023/06/26 06:08:15;;;;;;;41.92;25.08;;;;;;;21.94;51.53;93526.41;4991175;28;20038;-90
2023/06/26 06:10:40;;;;;;;62.47;39.15;;;;;;;21.99;51.73;93520.03;5011402;28;20052;-90
2023/06/26 06:13:06;;;;;;;36.28;23.10;;;;;;;22.04;51.00;93513.72;5010414;28;20030;-88
2023/06/26 06:15:31;;;;;;;41.95;25.90;;;;;;;22.03;50.92;93518.47;4992860;28;20109;-91
2023/06/26 06:17:56;;;;;;;81.03;44.78;;;;;;;22.11;50.93;93507.53;5022239;28;20067;-88
2023/06/26 06:20:22;;;;;;;78.25;42.45;;;;;;;22.14;50.84;93511.97;4994240;28;20042;-86
2023/06/26 06:22:48;;;;;;;70.53;41.70;;;;;;;22.21;50.59;93508.59;5010479;28;20037;-88
2023/06/26 06:25:14;;;;;;;55.28;35.65;;;;;;;22.18;50.53;93515.16;5028730;28;20203;-88
2023/06/26 06:27:39;;;;;;;45.20;25.98;;;;;;;22.20;50.48;93516.09;4964844;28;20046;-89
2023/06/26 06:30:05;;;;;;;41.90;24.08;;;;;;;22.24;50.64;93524.03;4977599;28;20111;-89
2023/06/26 06:32:31;;;;;;;47.05;25.85;;;;;;;22.29;50.79;93511.44;4994887;28;20196;-88
2023/06/26 06:34:57;;;;;;;47.72;27.20;;;;;;;22.28;50.54;93518.97;4989365;28;20049;-88
2023/06/26 06:37:23;;;;;;;51.63;27.02;;;;;;;22.31;50.56;93514.38;4992982;28;20488;-87
2023/06/26 06:39:48;;;;;;;110.00;33.97;;;;;;;22.32;50.27;93522.09;4986689;28;20038;-91
2023/06/26 06:42:14;;;;;;;154.65;40.17;;;;;;;22.38;50.46;93508.22;4965787;28;20046;-90
2023/06/26 06:44:39;;;;;;;193.30;50.15;;;;;;;22.39;50.39;93510.44;4979953;28;20041;-90
2023/06/26 06:47:05;;;;;;;215.85;68.47;;;;;;;22.47;50.19;93502.25;4966038;28;20061;-91
2023/06/26 06:49:30;;;;;;;116.50;43.72;;;;;;;22.52;49.98;93515.16;4949280;28;20049;-91
2023/06/26 06:51:56;;;;;;;96.40;36.63;;;;;;;22.57;49.69;93515.03;4978202;28;20523;-91
2023/06/26 06:54:21;;;;;;;93.20;33.08;;;;;;;22.59;49.74;93520.00;4972527;28;20049;-88
2023/06/26 06:56:47;;;;;;;70.55;27.95;;;;;;;22.52;50.06;93524.16;4986559;28;20050;-88
2023/06/26 06:59:12;;;;;;;88.20;32.17;;;;;;;22.54;50.03;93520.88;4977545;28;20065;-90
2023/06/26 07:01:39;;;;;;;48.22;23.17;;;;;;;22.59;50.00;93517.25;4975454;28;20411;-89
2023/06/26 07:04:04;;;;;;;84.35;30.52;;;;;;;22.57;49.94;93517.78;4993624;28;20477;-90
2023/06/26 07:06:30;;;;;;;80.78;33.92;;;;;;;22.58;50.21;93521.28;4992228;28;20247;-92
2023/06/26 07:08:55;;;;;;;93.38;32.42;;;;;;;22.63;49.94;93514.16;4992144;28;20052;-88
2023/06/26 07:11:22;;;;;;;87.05;35.75;;;;;;;22.65;50.07;93508.88;4974917;28;20129;-88
2023/06/26 07:13:47;;;;;;;205.40;52.72;;;;;;;22.68;50.14;93516.06;4981200;28;20052;-89
2023/06/26 07:16:14;;;;;;;237.90;58.03;;;;;;;22.71;50.01;93512.25;5007610;28;20034;-90
2023/06/26 07:18:40;;;;;;;181.43;55.22;;;;;;;22.72;49.82;93516.47;5019615;28;20576;-90
2023/06/26 07:21:08;;;;;;;165.60;58.40;;;;;;;22.73;50.04;93517.97;4992722;28;20034;-90
2023/06/26 07:23:33;;;;;;;190.82;65.75;;;;;;;22.84;49.59;93503.94;5000034;28;20046;-89
2023/06/26 07:25:59;;;;;;;191.52;62.83;;;;;;;22.82;49.58;93512.72;5008726;28;20057;-89
2023/06/26 07:28:24;;;;;;;180.00;68.05;;;;;;;22.81;49.64;93514.00;4991326;28;20054;-89
2023/06/26 07:30:50;;;;;;;235.57;84.43;;;;;;;22.82;49.67;93517.50;4998603;28;20039;-88
2023/06/26 07:33:15;;;;;;;214.85;78.55;;;;;;;22.81;49.79;93513.25;4993054;28;20095;-89
2023/06/26 07:35:40;;;;;;;188.65;71.57;;;;;;;22.82;50.06;93509.97;4985040;28;20576;-89
2023/06/26 07:38:06;;;;;;;205.38;69.90;;;;;;;22.90;49.63;93507.28;4981816;28;20045;-89
2023/06/26 07:40:31;;;;;;;340.13;90.05;;;;;;;22.92;49.83;93501.25;5008659;28;20061;-88
2023/06/26 07:42:58;;;;;;;334.45;96.72;;;;;;;22.90;50.15;93507.28;4988312;28;20038;-89
2023/06/26 07:45:23;;;;;;;241.73;90.40;;;;;;;22.92;49.58;93512.28;4988649;28;20063;-87
2023/06/26 07:47:49;;;;;;;261.77;106.13;;;;;;;22.88;49.82;93515.38;4989222;28;20057;-86
2023/06/26 07:50:21;;;;;;;244.35;97.65;;;;;;;22.84;50.02;93514.94;4990375;28;20038;-90
2023/06/26 07:52:47;;;;;;;355.77;127.05;;;;;;;22.92;49.86;93510.25;5018315;28;20041;-88
2023/06/26 07:55:13;;;;;;;343.80;114.25;;;;;;;22.94;49.94;93515.22;5012837;28;20041;-90
2023/06/26 07:57:41;;;;;;;249.27;90.28;;;;;;;22.93;49.64;93514.50;4976308;28;20114;-88
2023/06/26 08:00:07;;;;;;;390.27;111.80;;;;;;;22.94;50.29;93513.22;4955610;28;20170;-90
2023/06/26 08:02:32;;;;;;;327.05;105.18;;;;;;;22.96;50.14;93512.66;4967580;28;20050;-90
2023/06/26 08:04:58;;;;;;;334.63;109.55;;;;;;;22.96;50.12;93512.66;4969032;28;20491;-88
2023/06/26 08:07:23;;;;;;;331.25;105.28;;;;;;;23.06;49.78;93516.44;4938508;28;20413;-88
2023/06/26 08:09:49;;;;;;;267.13;97.78;;;;;;;23.02;49.96;93516.75;4967374;28;20050;-89
2023/06/26 08:12:14;;;;;;;343.50;113.18;;;;;;;23.06;50.02;93514.41;4966036;28;20042;-89
2023/06/26 08:14:39;;;;;;;285.13;101.15;;;;;;;23.05;49.88;93514.94;4954597;28;20053;-88
2023/06/26 08:17:05;;;;;;;300.70;107.15;;;;;;;23.01;50.11;93520.78;4963890;28;20049;-89
2023/06/26 08:19:31;;;;;;;289.20;100.55;;;;;;;23.02;50.11;93527.06;4976022;28;20142;-89
2023/06/26 08:21:56;;;;;;;252.15;101.38;;;;;;;22.99;50.01;93520.59;4955070;28;20035;-87
2023/06/26 08:24:22;;;;;;;268.15;111.63;;;;;;;23.02;49.96;93516.03;4958203;28;20070;-86
2023/06/26 08:26:47;;;;;;;283.02;102.97;;;;;;;23.02;50.27;93516.03;4944650;28;20050;-88
2023/06/26 08:29:13;;;;;;;203.10;85.30;;;;;;;23.04;50.01;93514.22;4949921;28;20508;-89
2023/06/26 08:31:39;;;;;;;211.93;87.63;;;;;;;23.06;49.79;93521.94;4977437;28;20052;-91
2023/06/26 08:34:04;;;;;;;209.40;94.07;;;;;;;23.10;49.77;93519.59;4973471;28;20157;-90
2023/06/26 08:36:30;;;;;;;199.63;89.82;;;;;;;23.11;50.02;93521.81;4978414;28;20046;-90
2023/06/26 08:38:56;;;;;;;204.55;94.28;;;;;;;23.10;50.03;93523.09;4990628;28;20049;-88
2023/06/26 08:41:21;;;;;;;224.10;91.85;;;;;;;23.12;50.11;93519.78;5001996;28;20049;-90
2023/06/26 08:43:47;;;;;;;320.33;111.93;;;;;;;23.10;50.50;93527.88;4966668;28;20484;-91
2023/06/26 08:46:13;;;;;;;359.02;123.43;;;;;;;23.12;50.25;93523.28;4985920;28;20038;-88
2023/06/26 08:48:38;;;;;;;226.48;93.85;;;;;;;23.15;50.13;93519.47;4967343;28;20071;-90
2023/06/26 08:51:08;;;;;;;236.52;99.28;;;;;;;23.14;49.95;93517.25;4969174;28;20157;-92
2023/06/26 08:53:53;;;;;;;278.77;120.27;;;;;;;23.13;50.55;93519.25;5002978;28;20042;-92
2023/06/26 08:56:21;;;;;;;283.80;129.63;;;;;;;23.14;50.49;93520.00;5006010;28;20034;-90
2023/06/26 08:58:46;;;;;;;255.68;116.72;;;;;;;23.18;50.28;93515.59;4974944;28;20041;-90
2023/06/26 09:01:12;;;;;;;328.10;120.55;;;;;;;23.19;50.03;93511.56;4973899;28;20822;-89
2023/06/26 09:03:38;;;;;;;307.70;141.27;;;;;;;23.16;50.20;93504.41;4989586;28;20050;-89
2023/06/26 09:06:03;;;;;;;307.40;139.15;;;;;;;23.19;50.17;93513.56;4989924;28;20111;-91
2023/06/26 09:08:28;;;;;;;294.98;150.50;;;;;;;23.21;50.38;93514.53;4973842;28;20680;-90
2023/06/26 09:10:54;;;;;;;278.20;152.35;;;;;;;23.26;49.81;93512.91;4985039;28;20408;-89
2023/06/26 09:13:19;;;;;;;249.55;137.48;;;;;;;23.37;49.96;93518.16;4975029;28;20042;-91
2023/06/26 09:15:45;;;;;;;225.43;122.97;;;;;;;23.43;49.90;93510.44;5010081;28;20057;-89
2023/06/26 09:18:11;;;;;;;221.38;119.20;;;;;;;23.42;49.89;93514.50;4979018;28;20546;-90
2023/06/26 09:20:36;;;;;;;265.77;119.57;;;;;;;23.42;50.00;93511.00;4977990;28;20038;-90
2023/06/26 09:23:02;;;;;;;225.30;119.40;;;;;;;23.41;49.90;93512.28;4994583;28;20093;-90
2023/06/26 09:25:28;;;;;;;235.65;121.25;;;;;;;23.42;49.99;93508.22;4992021;28;20042;-91
2023/06/26 09:27:53;;;;;;;499.30;163.52;;;;;;;23.39;50.07;93499.00;5002708;28;20045;-90
2023/06/26 09:30:19;;;;;;;304.75;126.95;;;;;;;23.39;49.97;93501.03;4989610;28;20046;-92
2023/06/26 09:32:44;;;;;;;446.85;146.68;;;;;;;23.44;49.94;93498.13;4993884;28;20385;-90
2023/06/26 09:35:10;;;;;;;401.42;144.18;;;;;;;23.43;49.85;93509.72;4993347;28;20623;-89
2023/06/26 09:37:35;;;;;;;235.20;113.28;;;;;;;23.37;49.83;93498.84;4975848;28;20116;-89
2023/06/26 09:40:01;;;;;;;246.57;128.35;;;;;;;23.41;49.72;93501.97;5009913;28;20062;-89
2023/06/26 09:42:26;;;;;;;266.98;140.93;;;;;;;23.38;50.05;93499.59;5009030;28;20030;-89
2023/06/26 09:44:51;;;;;;;361.80;156.63;;;;;;;23.37;50.27;93507.13;4994500;28;20042;-89
2023/06/26 09:47:18;;;;;;;293.15;128.25;;;;;;;23.35;50.31;93497.91;4993144;28;20038;-90
2023/06/26 09:49:44;;;;;;;275.95;129.90;;;;;;;23.36;50.04;93504.91;4988020;28;20038;-88
2023/06/26 09:52:09;;;;;;;285.20;147.98;;;;;;;23.34;50.12;93505.44;4994041;28;20033;-92
2023/06/26 09:54:36;;;;;;;271.25;137.45;;;;;;;23.38;50.12;93502.34;4999064;28;20042;-90
2023/06/26 09:57:16;;;;;;;247.60;126.38;;;;;;;23.38;50.16;93499.59;4990439;28;20042;-93
2023/06/26 09:59:42;;;;;;;316.70;162.73;;;;;;;23.37;50.31;93500.84;4992625;28;20047;-87
2023/06/26 10:02:07;;;;;;;263.40;123.95;;;;;;;23.37;50.43;93498.09;4992768;28;20050;-87
2023/06/26 10:04:33;;;;;;;241.57;117.90;;;;;;;23.44;50.18;93486.34;4983892;28;20060;-87
2023/06/26 10:06:59;;;;;;;240.93;124.57;;;;;;;23.38;50.29;93489.28;5007218;28;20100;-88
2023/06/26 10:09:25;;;;;;;231.50;120.00;;;;;;;23.37;50.35;93490.56;4991809;28;20079;-90
2023/06/26 10:12:02;;;;;;;222.05;117.70;;;;;;;23.39;50.11;93490.75;4989529;28;20058;-88
2023/06/26 10:14:27;;;;;;;213.63;109.20;;;;;;;23.40;50.03;93489.47;4991959;28;20042;-89
2023/06/26 10:16:53;;;;;;;202.35;104.03;;;;;;;23.41;49.96;93490.19;4993943;28;20064;-90
2023/06/26 10:19:23;;;;;;;233.32;109.82;;;;;;;23.40;49.70;93481.19;4985218;28;20030;-89
2023/06/26 10:21:52;;;;;;;188.18;93.90;;;;;;;23.44;49.74;93478.09;4984887;28;20038;-89
2023/06/26 10:24:18;;;;;;;191.40;101.07;;;;;;;23.42;49.68;93481.38;5005785;28;20030;-88
2023/06/26 10:26:45;;;;;;;232.80;160.05;;;;;;;23.44;49.88;93478.81;4971641;28;20455;-88
2023/06/26 10:29:10;;;;;;;177.65;96.03;;;;;;;23.40;50.13;93483.19;4991155;28;20062;-87
2023/06/26 10:31:35;;;;;;;164.40;90.70;;;;;;;23.40;50.15;93472.91;4993155;28;20049;-87
2023/06/26 10:34:01;;;;;;;163.50;90.93;;;;;;;23.43;49.95;93471.81;4971578;28;20046;-87
2023/06/26 10:36:28;;;;;;;163.88;90.15;;;;;;;23.44;49.80;93475.31;5008240;28;20519;-87
2023/06/26 10:38:56;;;;;;;157.88;88.50;;;;;;;23.43;50.20;93466.31;4976232;28;20070;-87
2023/06/26 10:41:23;;;;;;;145.25;83.90;;;;;;;23.47;49.80;93469.47;4991883;28;20157;-89
2023/06/26 10:44:06;;;;;;;164.77;102.60;;;;;;;23.50;49.80;93467.63;5011891;28;20363;-88
2023/06/26 10:46:34;;;;;;;259.35;166.48;;;;;;;23.48;50.16;93470.19;5008129;28;20050;-87
2023/06/26 10:49:00;;;;;;;156.45;93.03;;;;;;;23.46;50.07;93461.72;4972442;28;20053;-88
2023/06/26 10:51:26;;;;;;;467.50;141.10;;;;;;;23.46;50.18;93450.69;5007721;28;20057;-89
2023/06/26 10:53:56;;;;;;;201.93;101.68;;;;;;;23.44;50.20;93458.78;5002572;28;20047;-89
2023/06/26 10:56:21;;;;;;;225.15;98.70;;;;;;;23.48;50.46;93459.16;4991237;28;20038;-89
2023/06/26 10:58:47;;;;;;;213.65;115.68;;;;;;;23.53;50.18;93469.34;4994424;28;20064;-88
2023/06/26 11:01:19;;;;;;;199.23;110.18;;;;;;;23.49;50.12;93463.41;4975491;28;20034;-89
2023/06/26 11:04:02;;;;;;;240.27;120.53;;;;;;;23.49;50.09;93447.59;5007286;28;20438;-91
2023/06/26 11:06:27;;;;;;;526.95;161.77;;;;;;;23.46;50.29;93462.47;4992198;28;20112;-89
2023/06/26 11:08:54;;;;;;;392.10;139.45;;;;;;;23.48;50.18;93454.38;5006435;28;20049;-88
2023/06/26 11:11:21;;;;;;;323.88;125.43;;;;;;;23.49;50.31;93468.91;4980350;28;20038;-85
2023/06/26 11:13:47;;;;;;;250.68;110.28;;;;;;;23.51;50.41;93458.81;4987471;28;20112;-87
2023/06/26 11:16:12;;;;;;;233.07;108.57;;;;;;;23.55;50.12;93459.25;4984357;28;20042;-87